createdAt,value
2019-03-15T00:00:42.386Z,10.50
2019-03-15T00:03:08.536Z,10.50
2019-03-15T00:05:35.049Z,10.50
2019-03-15T00:08:01.258Z,10.50
2019-03-15T00:10:27.763Z,10.50
2019-03-15T00:12:53.889Z,10.50
2019-03-15T00:15:20.062Z,10.50
2019-03-15T00:17:46.202Z,10.50
2019-03-15T00:20:12.467Z,10.50
2019-03-15T00:22:38.621Z,10.50
2019-03-15T00:25:05.137Z,10.50
2019-03-15T00:27:31.324Z,10.50
2019-03-15T00:29:57.833Z,10.50
2019-03-15T00:32:23.977Z,10.50
2019-03-15T00:34:50.123Z,10.50
2019-03-15T00:37:16.267Z,10.50
2019-03-15T00:39:42.429Z,10.50
2019-03-15T00:42:08.589Z,10.50
2019-03-15T00:44:34.811Z,10.50
2019-03-15T00:47:00.971Z,10.60
2019-03-15T00:49:27.125Z,10.50
2019-03-15T00:51:53.262Z,10.50
2019-03-15T00:54:19.415Z,10.50
2019-03-15T00:56:45.594Z,10.50
2019-03-15T00:59:11.701Z,10.50
2019-03-15T01:01:37.863Z,10.50
2019-03-15T01:04:04.009Z,10.50
2019-03-15T01:06:30.173Z,10.50
2019-03-15T01:08:56.319Z,10.40
2019-03-15T01:11:22.494Z,10.40
2019-03-15T01:13:48.636Z,10.40
2019-03-15T01:16:14.855Z,10.40
2019-03-15T01:18:41.323Z,10.40
2019-03-15T01:21:13.825Z,10.40
2019-03-15T01:23:46.640Z,10.30
2019-03-15T01:26:12.889Z,10.30
2019-03-15T01:28:39.059Z,10.40
2019-03-15T01:31:05.357Z,10.30
2019-03-15T01:33:31.507Z,10.40
2019-03-15T01:35:57.690Z,10.40
2019-03-15T01:38:24.076Z,10.30
2019-03-15T01:40:50.317Z,10.30
2019-03-15T01:43:16.859Z,10.40
2019-03-15T01:45:43.514Z,10.30
2019-03-15T01:48:09.762Z,10.40
2019-03-15T01:50:35.912Z,10.40
2019-03-15T01:53:02.055Z,10.40
2019-03-15T01:55:28.210Z,10.40
2019-03-15T01:57:54.341Z,10.40
2019-03-15T02:00:20.501Z,10.30
2019-03-15T02:02:46.636Z,10.40
2019-03-15T02:05:13.067Z,10.40
2019-03-15T02:07:39.441Z,10.40
2019-03-15T02:10:07.080Z,10.40
2019-03-15T02:12:33.238Z,10.40
2019-03-15T02:14:59.389Z,10.40
2019-03-15T02:17:26.361Z,10.40
2019-03-15T02:19:52.953Z,10.40
2019-03-15T02:22:19.145Z,10.40
2019-03-15T02:24:45.282Z,10.30
2019-03-15T02:27:11.470Z,10.30
2019-03-15T02:29:37.590Z,10.30
2019-03-15T02:32:03.750Z,10.30
2019-03-15T02:34:29.903Z,10.30
2019-03-15T02:36:56.061Z,10.30
2019-03-15T02:39:22.207Z,10.30
2019-03-15T02:41:48.358Z,10.30
2019-03-15T02:44:14.553Z,10.30
2019-03-15T02:46:40.752Z,10.30
2019-03-15T02:49:08.326Z,10.30
2019-03-15T02:51:34.658Z,10.30
2019-03-15T02:54:01.155Z,10.30
2019-03-15T02:56:27.393Z,10.40
2019-03-15T02:58:54.106Z,10.30
2019-03-15T03:01:20.531Z,10.30
2019-03-15T03:03:47.273Z,10.30
2019-03-15T03:06:13.662Z,10.30
2019-03-15T03:08:41.374Z,10.30
2019-03-15T03:11:08.099Z,10.30
2019-03-15T03:13:37.246Z,10.30
2019-03-15T03:16:03.671Z,10.30
2019-03-15T03:18:29.823Z,10.30
2019-03-15T03:20:55.956Z,10.30
2019-03-15T03:23:22.186Z,10.30
2019-03-15T03:25:48.320Z,10.30
2019-03-15T03:28:14.485Z,10.30
2019-03-15T03:30:40.676Z,10.30
2019-03-15T03:33:08.839Z,10.30
2019-03-15T03:35:34.973Z,10.30
2019-03-15T03:38:01.152Z,10.30
2019-03-15T03:40:29.083Z,10.30
2019-03-15T03:42:55.570Z,10.30
2019-03-15T03:45:23.392Z,10.30
2019-03-15T03:47:50.012Z,10.30
2019-03-15T03:50:16.144Z,10.30
2019-03-15T03:52:42.315Z,10.30
2019-03-15T03:55:08.788Z,10.20
2019-03-15T03:57:34.967Z,10.20
2019-03-15T04:00:01.572Z,10.20
2019-03-15T04:02:27.832Z,10.20
2019-03-15T04:04:54.469Z,10.20
2019-03-15T04:07:21.442Z,10.20
2019-03-15T04:09:47.558Z,10.20
2019-03-15T04:12:13.749Z,10.20
2019-03-15T04:14:39.892Z,10.20
2019-03-15T04:17:06.088Z,10.20
2019-03-15T04:19:32.227Z,10.20
2019-03-15T04:21:58.383Z,10.30
2019-03-15T04:24:24.541Z,10.30
2019-03-15T04:26:50.975Z,10.30
2019-03-15T04:29:17.115Z,10.30
2019-03-15T04:31:43.253Z,10.30
2019-03-15T04:34:09.410Z,10.30
2019-03-15T04:36:36.001Z,10.30
2019-03-15T04:39:05.470Z,10.30
2019-03-15T04:41:31.609Z,10.30
2019-03-15T04:43:57.807Z,10.30
2019-03-15T04:46:23.944Z,10.30
2019-03-15T04:48:50.100Z,10.30
2019-03-15T04:51:16.271Z,10.30
2019-03-15T04:53:42.458Z,10.30
2019-03-15T04:56:08.587Z,10.20
2019-03-15T04:58:34.735Z,10.20
2019-03-15T05:01:00.921Z,10.20
2019-03-15T05:03:27.342Z,10.20
2019-03-15T05:06:03.271Z,10.20
2019-03-15T05:08:21.565Z,10.20
2019-03-15T05:10:47.704Z,10.20
2019-03-15T05:13:14.102Z,10.20
2019-03-15T05:15:40.252Z,10.10
2019-03-15T05:18:06.475Z,10.20
2019-03-15T05:20:32.605Z,10.20
2019-03-15T05:22:58.803Z,10.20
2019-03-15T05:25:25.305Z,10.20
2019-03-15T05:27:51.470Z,10.20
2019-03-15T05:30:17.618Z,10.30
2019-03-15T05:32:43.804Z,10.30
2019-03-15T05:35:09.938Z,10.30
2019-03-15T05:37:36.479Z,10.40
2019-03-15T05:40:05.986Z,10.40
2019-03-15T05:42:32.137Z,10.50
2019-03-15T05:44:58.402Z,10.40
2019-03-15T05:47:24.550Z,10.40
2019-03-15T05:49:51.030Z,10.50
2019-03-15T05:52:17.442Z,10.50
2019-03-15T05:54:43.634Z,10.40
2019-03-15T05:57:09.766Z,10.40
2019-03-15T05:59:36.195Z,10.40
2019-03-15T06:02:02.333Z,10.40
2019-03-15T06:04:28.487Z,10.40
2019-03-15T06:06:54.656Z,10.40
2019-03-15T06:09:20.820Z,10.40
2019-03-15T06:11:46.970Z,10.40
2019-03-15T06:14:13.143Z,10.40
2019-03-15T06:16:39.303Z,10.50
2019-03-15T06:19:05.484Z,10.50
2019-03-15T06:21:31.618Z,10.50
2019-03-15T06:23:57.798Z,10.60
2019-03-15T06:26:23.922Z,10.70
2019-03-15T06:28:50.094Z,10.90
2019-03-15T06:31:16.285Z,11.00
2019-03-15T06:33:42.413Z,11.10
2019-03-15T06:36:08.569Z,11.30
2019-03-15T06:38:34.750Z,11.40
2019-03-15T06:41:00.879Z,11.50
2019-03-15T06:43:27.034Z,11.50
2019-03-15T06:45:53.222Z,11.60
2019-03-15T06:48:19.371Z,11.60
2019-03-15T06:50:45.538Z,11.60
2019-03-15T06:53:11.682Z,11.70
2019-03-15T06:55:37.858Z,11.90
2019-03-15T06:58:04.018Z,12.20
2019-03-15T07:00:30.180Z,12.60
2019-03-15T07:02:56.388Z,13.00
2019-03-15T07:05:22.550Z,13.40
2019-03-15T07:07:48.708Z,13.80
2019-03-15T07:10:14.881Z,14.20
2019-03-15T07:12:41.050Z,14.60
2019-03-15T07:15:10.925Z,14.90
2019-03-15T07:17:37.049Z,15.20
2019-03-15T07:20:10.572Z,15.30
2019-03-15T07:22:36.732Z,15.40
2019-03-15T07:25:03.793Z,15.50
2019-03-15T07:27:29.957Z,15.50
2019-03-15T07:29:56.126Z,15.50
2019-03-15T07:32:22.288Z,15.50
2019-03-15T07:34:48.791Z,15.40
2019-03-15T07:37:14.936Z,15.40
2019-03-15T07:39:41.104Z,15.30
2019-03-15T07:42:07.247Z,15.20
2019-03-15T07:44:33.507Z,15.20
2019-03-15T07:46:59.652Z,15.10
2019-03-15T07:49:25.812Z,15.00
2019-03-15T07:51:51.979Z,15.00
2019-03-15T07:54:18.156Z,14.90
2019-03-15T07:56:44.313Z,14.90
2019-03-15T07:59:10.537Z,14.80
2019-03-15T08:01:36.720Z,14.70
2019-03-15T08:04:15.940Z,14.70
2019-03-15T08:06:35.034Z,14.60
2019-03-15T08:08:59.083Z,14.60
2019-03-15T08:11:27.723Z,14.50
2019-03-15T08:13:53.897Z,14.50
2019-03-15T08:16:20.052Z,14.40
2019-03-15T08:18:46.243Z,14.50
2019-03-15T08:21:12.440Z,14.50
2019-03-15T08:23:38.565Z,14.60
2019-03-15T08:26:04.727Z,14.80
2019-03-15T08:28:30.986Z,15.20
2019-03-15T08:30:57.643Z,15.60
2019-03-15T08:33:23.767Z,16.00
2019-03-15T08:35:49.961Z,16.40
2019-03-15T08:38:16.229Z,16.70
2019-03-15T08:40:42.481Z,17.00
2019-03-15T08:43:08.674Z,17.20
2019-03-15T08:45:34.999Z,17.40
2019-03-15T08:48:01.187Z,17.60
2019-03-15T08:50:27.388Z,17.70
2019-03-15T08:52:54.358Z,17.80
2019-03-15T08:55:20.755Z,17.90
2019-03-15T08:57:47.798Z,18.00
2019-03-15T09:00:16.797Z,18.00
2019-03-15T09:02:43.063Z,18.00
2019-03-15T09:05:13.377Z,18.00
2019-03-15T09:07:39.492Z,17.90
2019-03-15T09:10:21.956Z,17.90
2019-03-15T09:12:38.213Z,17.90
2019-03-15T09:15:07.559Z,17.90
2019-03-15T09:17:33.977Z,18.00
2019-03-15T09:20:00.389Z,18.10
2019-03-15T09:22:26.711Z,18.20
2019-03-15T09:24:52.868Z,18.30
2019-03-15T09:27:19.055Z,18.50
2019-03-15T09:29:47.187Z,18.60
2019-03-15T09:32:13.434Z,18.60
2019-03-15T09:34:39.567Z,18.60
2019-03-15T09:37:05.744Z,18.60
2019-03-15T09:39:31.902Z,18.60
2019-03-15T09:41:58.081Z,18.50
2019-03-15T09:44:24.264Z,18.50
2019-03-15T09:46:50.423Z,18.40
2019-03-15T09:49:16.681Z,18.30
2019-03-15T09:51:42.972Z,18.10
2019-03-15T09:54:11.281Z,18.00
2019-03-15T09:56:37.465Z,18.00
2019-03-15T09:59:03.920Z,17.90
2019-03-15T10:01:35.274Z,17.90
2019-03-15T10:03:58.175Z,17.90
2019-03-15T10:06:24.346Z,18.00
2019-03-15T10:08:50.559Z,18.20
2019-03-15T10:11:16.772Z,18.30
2019-03-15T10:13:42.916Z,18.50
2019-03-15T10:16:09.098Z,18.70
2019-03-15T10:18:35.241Z,18.90
2019-03-15T10:21:01.461Z,19.10
2019-03-15T10:23:27.633Z,19.20
2019-03-15T10:25:53.799Z,19.30
2019-03-15T10:28:20.028Z,19.40
2019-03-15T10:30:46.248Z,19.60
2019-03-15T10:33:12.409Z,19.70
2019-03-15T10:35:38.566Z,19.90
2019-03-15T10:38:05.026Z,20.00
2019-03-15T10:40:31.180Z,20.10
2019-03-15T10:42:57.352Z,20.10
2019-03-15T10:45:23.645Z,20.10
2019-03-15T10:47:49.781Z,20.10
2019-03-15T10:50:17.838Z,20.10
2019-03-15T10:52:44.018Z,20.10
2019-03-15T10:55:10.498Z,20.00
2019-03-15T10:57:36.717Z,19.90
2019-03-15T11:00:12.281Z,19.70
2019-03-15T11:02:38.506Z,19.50
2019-03-15T11:05:07.672Z,19.30
2019-03-15T11:07:33.831Z,19.10
2019-03-15T11:09:59.992Z,18.80
2019-03-15T11:12:26.228Z,18.60
2019-03-15T11:14:52.363Z,18.30
2019-03-15T11:17:18.645Z,18.10
2019-03-15T11:19:44.815Z,17.90
2019-03-15T11:22:10.991Z,17.70
2019-03-15T11:24:37.225Z,17.50
2019-03-15T11:27:03.734Z,17.40
2019-03-15T11:29:30.177Z,17.30
2019-03-15T11:31:56.661Z,17.20
2019-03-15T11:34:22.917Z,17.10
2019-03-15T11:36:58.189Z,17.00
2019-03-15T11:39:17.471Z,16.90
2019-03-15T11:41:43.622Z,16.90
2019-03-15T11:44:09.823Z,16.90
2019-03-15T11:46:36.266Z,16.90
2019-03-15T11:49:02.448Z,16.90
2019-03-15T11:51:28.596Z,17.00
2019-03-15T11:53:54.853Z,16.90
2019-03-15T11:56:26.970Z,16.90
2019-03-15T11:58:49.422Z,16.80
2019-03-15T12:01:15.684Z,16.80
2019-03-15T12:03:52.543Z,16.80
2019-03-15T12:06:09.933Z,16.70
2019-03-15T12:08:36.097Z,16.70
2019-03-15T12:11:02.346Z,16.60
2019-03-15T12:13:28.627Z,16.60
2019-03-15T12:15:55.093Z,16.50
2019-03-15T12:18:21.261Z,16.50
2019-03-15T12:20:49.232Z,16.50
2019-03-15T12:23:15.567Z,16.50
2019-03-15T12:25:41.749Z,16.50
2019-03-15T12:28:07.915Z,16.50
2019-03-15T12:30:34.117Z,16.40
2019-03-15T12:33:00.269Z,16.40
2019-03-15T12:35:26.420Z,16.30
2019-03-15T12:37:52.603Z,16.30
2019-03-15T12:40:18.759Z,16.20
2019-03-15T12:42:45.050Z,16.10
2019-03-15T12:45:12.590Z,16.00
2019-03-15T12:47:38.753Z,15.90
2019-03-15T12:50:12.644Z,15.80
2019-03-15T12:52:47.149Z,15.70
2019-03-15T12:55:09.889Z,15.60
2019-03-15T12:57:36.058Z,15.60
2019-03-15T13:00:07.024Z,15.50
2019-03-15T13:02:33.190Z,15.50
2019-03-15T13:04:59.408Z,15.40
2019-03-15T13:07:25.573Z,15.40
2019-03-15T13:09:51.732Z,15.40
2019-03-15T13:12:17.889Z,15.30
2019-03-15T13:14:44.074Z,15.30
2019-03-15T13:17:10.329Z,15.30
2019-03-15T13:19:36.842Z,15.20
2019-03-15T13:22:03.381Z,15.20
2019-03-15T13:24:29.559Z,15.20
2019-03-15T13:27:06.855Z,15.10
2019-03-15T13:29:23.757Z,15.10
2019-03-15T13:31:50.245Z,15.10
2019-03-15T13:34:16.452Z,15.10
2019-03-15T13:36:42.607Z,15.10
2019-03-15T13:39:08.789Z,15.10
2019-03-15T13:41:34.965Z,15.10
2019-03-15T13:44:01.273Z,15.00
2019-03-15T13:46:27.668Z,15.00
2019-03-15T13:48:53.886Z,14.90
2019-03-15T13:51:22.646Z,14.90
2019-03-15T13:53:48.392Z,14.80
2019-03-15T13:56:14.567Z,14.80
2019-03-15T13:58:40.884Z,14.70
2019-03-15T14:01:07.331Z,14.70
2019-03-15T14:03:33.493Z,14.70
2019-03-15T14:05:59.692Z,14.60
2019-03-15T14:08:25.836Z,14.60
2019-03-15T14:10:52.067Z,14.60
2019-03-15T14:13:18.607Z,14.50
2019-03-15T14:15:44.812Z,14.50
2019-03-15T14:18:11.110Z,14.40
2019-03-15T14:20:37.368Z,14.40
2019-03-15T14:23:03.508Z,14.30
2019-03-15T14:25:29.747Z,14.30
2019-03-15T14:27:55.928Z,14.20
2019-03-15T14:30:22.655Z,14.20
2019-03-15T14:32:49.022Z,14.20
2019-03-15T14:35:21.447Z,14.10
2019-03-15T14:37:47.707Z,14.10
2019-03-15T14:40:13.959Z,14.10
2019-03-15T14:42:40.327Z,14.00
2019-03-15T14:45:12.176Z,14.10
2019-03-15T14:47:38.426Z,14.00
2019-03-15T14:50:07.808Z,13.90
2019-03-15T14:52:33.951Z,13.90
2019-03-15T14:55:00.252Z,13.90
2019-03-15T14:57:26.692Z,13.80
2019-03-15T14:59:52.874Z,13.80
2019-03-15T15:02:19.032Z,13.80
2019-03-15T15:04:45.211Z,13.80
2019-03-15T15:07:11.365Z,13.70
2019-03-15T15:09:39.578Z,13.70
2019-03-15T15:12:06.086Z,13.70
2019-03-15T15:14:32.228Z,13.60
2019-03-15T15:16:58.380Z,13.60
2019-03-15T15:19:24.527Z,13.60
2019-03-15T15:21:52.995Z,13.50
2019-03-15T15:24:21.158Z,13.50
2019-03-15T15:26:47.471Z,13.50
2019-03-15T15:29:13.917Z,13.40
2019-03-15T15:31:40.086Z,13.40
2019-03-15T15:34:06.256Z,13.40
2019-03-15T15:36:32.674Z,13.40
2019-03-15T15:38:58.819Z,13.40
2019-03-15T15:41:24.989Z,13.40
2019-03-15T15:43:51.173Z,13.40
2019-03-15T15:46:17.445Z,13.40
2019-03-15T15:48:43.626Z,13.40
2019-03-15T15:51:10.137Z,13.40
2019-03-15T15:53:36.289Z,13.40
2019-03-15T15:56:02.473Z,13.50
2019-03-15T15:58:29.255Z,13.50
2019-03-15T16:00:55.549Z,13.50
2019-03-15T16:03:21.657Z,13.50
2019-03-15T16:05:47.879Z,13.50
2019-03-15T16:08:14.047Z,13.60
2019-03-15T16:10:43.252Z,13.60
2019-03-15T16:13:17.405Z,13.70
2019-03-15T16:15:37.780Z,13.70
2019-03-15T16:18:03.920Z,13.70
2019-03-15T16:20:30.081Z,13.80
2019-03-15T16:22:56.262Z,13.80
2019-03-15T16:25:22.497Z,13.80
2019-03-15T16:27:48.931Z,13.90
2019-03-15T16:30:21.095Z,13.90
2019-03-15T16:32:47.373Z,14.00
2019-03-15T16:35:13.819Z,14.00
2019-03-15T16:37:40.317Z,14.00
2019-03-15T16:40:09.461Z,14.00
2019-03-15T16:42:37.773Z,14.00
2019-03-15T16:45:20.713Z,14.10
2019-03-15T16:47:46.937Z,14.10
2019-03-15T16:50:13.084Z,14.10
2019-03-15T16:52:39.257Z,14.10
2019-03-15T16:55:10.336Z,14.10
2019-03-15T16:57:36.514Z,14.10
2019-03-15T17:00:07.193Z,14.20
2019-03-15T17:02:33.686Z,14.20
2019-03-15T17:04:59.849Z,14.20
2019-03-15T17:07:27.258Z,14.20
2019-03-15T17:09:55.341Z,14.30
2019-03-15T17:12:21.615Z,14.30
2019-03-15T17:14:48.121Z,14.30
2019-03-15T17:17:14.454Z,14.30
2019-03-15T17:19:40.665Z,14.40
2019-03-15T17:22:06.859Z,14.40
2019-03-15T17:24:33.003Z,14.40
2019-03-15T17:26:59.196Z,14.40
2019-03-15T17:29:25.621Z,14.40
2019-03-15T17:31:52.017Z,14.50
2019-03-15T17:34:18.157Z,14.50
2019-03-15T17:36:44.332Z,14.50
2019-03-15T17:39:10.485Z,14.50
2019-03-15T17:41:36.687Z,14.50
2019-03-15T17:44:03.404Z,14.50
2019-03-15T17:46:29.891Z,14.60
2019-03-15T17:48:56.047Z,14.60
2019-03-15T17:51:22.232Z,14.60
2019-03-15T17:53:48.395Z,14.60
2019-03-15T17:56:14.569Z,14.60
2019-03-15T17:58:40.912Z,14.60
2019-03-15T18:01:07.075Z,14.60
2019-03-15T18:03:33.281Z,14.70
2019-03-15T18:05:59.724Z,14.70
2019-03-15T18:08:25.890Z,14.70
2019-03-15T18:10:52.066Z,14.70
2019-03-15T18:13:18.255Z,14.70
2019-03-15T18:15:44.416Z,14.80
2019-03-15T18:18:10.707Z,14.80
2019-03-15T18:20:37.108Z,14.80
2019-03-15T18:23:03.547Z,14.90
2019-03-15T18:25:29.889Z,14.90
2019-03-15T18:27:56.017Z,15.00
2019-03-15T18:30:22.321Z,15.00
2019-03-15T18:32:48.994Z,15.00
2019-03-15T18:35:15.248Z,15.00
2019-03-15T18:37:41.767Z,15.00
2019-03-15T18:40:13.347Z,14.90
2019-03-15T18:42:39.712Z,14.80
2019-03-15T18:45:14.045Z,14.60
2019-03-15T18:47:40.367Z,14.40
2019-03-15T18:50:26.766Z,14.20
2019-03-15T18:52:53.196Z,14.00
2019-03-15T18:55:19.319Z,13.70
2019-03-15T18:57:45.604Z,13.50
2019-03-15T19:00:20.257Z,13.40
2019-03-15T19:02:46.663Z,13.20
2019-03-15T19:05:12.927Z,13.10
2019-03-15T19:07:41.477Z,13.00
2019-03-15T19:10:10.479Z,12.90
2019-03-15T19:12:36.715Z,12.80
2019-03-15T19:15:07.283Z,12.70
2019-03-15T19:17:33.478Z,12.60
2019-03-15T19:19:59.807Z,12.50
2019-03-15T19:22:26.015Z,12.40
2019-03-15T19:24:52.167Z,12.40
2019-03-15T19:27:18.672Z,12.30
2019-03-15T19:29:53.710Z,12.30
2019-03-15T19:32:12.897Z,12.20
2019-03-15T19:34:39.217Z,12.10
2019-03-15T19:37:05.523Z,12.10
2019-03-15T19:39:31.669Z,12.10
2019-03-15T19:41:57.862Z,12.00
2019-03-15T19:44:24.036Z,12.00
2019-03-15T19:46:50.172Z,12.00
2019-03-15T19:49:16.598Z,12.00
2019-03-15T19:51:42.783Z,12.00
2019-03-15T19:54:08.968Z,12.00
2019-03-15T19:56:35.387Z,12.00
2019-03-15T19:59:01.590Z,12.00
2019-03-15T20:01:29.147Z,12.00
2019-03-15T20:03:55.565Z,12.00
2019-03-15T20:06:21.728Z,12.00
2019-03-15T20:08:48.250Z,12.00
2019-03-15T20:11:14.504Z,12.10
2019-03-15T20:13:41.182Z,12.10
2019-03-15T20:16:07.465Z,12.10
2019-03-15T20:18:33.723Z,12.20
2019-03-15T20:20:59.875Z,12.20
2019-03-15T20:23:26.044Z,12.20
2019-03-15T20:25:52.173Z,12.20
2019-03-15T20:28:18.347Z,12.20
2019-03-15T20:30:51.720Z,12.20
2019-03-15T20:33:13.151Z,12.20
2019-03-15T20:35:39.685Z,12.20
2019-03-15T20:38:06.330Z,12.20
2019-03-15T20:40:32.511Z,12.10
2019-03-15T20:42:58.695Z,12.10
2019-03-15T20:45:29.984Z,12.10
2019-03-15T20:47:56.292Z,12.10
2019-03-15T20:50:22.456Z,12.10
2019-03-15T20:52:48.701Z,12.20
2019-03-15T20:55:35.139Z,12.20
2019-03-15T20:58:01.368Z,12.20
2019-03-15T21:00:35.538Z,12.20
2019-03-15T21:02:56.355Z,12.20
2019-03-15T21:05:22.618Z,12.20
2019-03-15T21:07:48.835Z,12.30
2019-03-15T21:10:20.528Z,12.30
2019-03-15T21:12:47.052Z,12.30
2019-03-15T21:15:14.386Z,12.40
2019-03-15T21:17:40.848Z,12.40
2019-03-15T21:20:10.872Z,12.40
2019-03-15T21:22:37.022Z,12.40
2019-03-15T21:25:04.209Z,12.50
2019-03-15T21:27:30.391Z,12.50
2019-03-15T21:29:56.560Z,12.50
2019-03-15T21:32:22.732Z,12.50
2019-03-15T21:34:50.961Z,12.50
2019-03-15T21:37:17.171Z,12.50
2019-03-15T21:39:43.350Z,12.60
2019-03-15T21:42:09.530Z,12.60
2019-03-15T21:44:35.713Z,12.60
2019-03-15T21:47:01.883Z,12.60
2019-03-15T21:49:28.073Z,12.60
2019-03-15T21:51:54.222Z,12.60
2019-03-15T21:54:20.427Z,12.60
2019-03-15T21:56:46.571Z,12.60
2019-03-15T21:59:13.013Z,12.60
2019-03-15T22:01:39.159Z,12.70
2019-03-15T22:04:05.380Z,12.70
2019-03-15T22:06:31.562Z,12.70
2019-03-15T22:08:57.728Z,12.70
2019-03-15T22:11:23.905Z,12.60
2019-03-15T22:13:50.062Z,12.60
2019-03-15T22:16:16.237Z,12.60
2019-03-15T22:18:42.387Z,12.60
2019-03-15T22:21:08.619Z,12.60
2019-03-15T22:23:34.721Z,12.50
2019-03-15T22:26:00.947Z,12.50
2019-03-15T22:28:27.195Z,12.50
2019-03-15T22:30:53.391Z,12.40
2019-03-15T22:33:19.547Z,12.40
2019-03-15T22:35:45.729Z,12.40
2019-03-15T22:38:25.267Z,12.30
2019-03-15T22:40:40.451Z,12.30
2019-03-15T22:43:06.815Z,12.30
2019-03-15T22:45:33.040Z,12.20
2019-03-15T22:47:59.190Z,12.20
2019-03-15T22:50:25.643Z,12.20
2019-03-15T22:52:51.872Z,12.20
2019-03-15T22:55:19.036Z,12.20
2019-03-15T22:57:58.959Z,12.10
2019-03-15T23:00:17.363Z,12.10
2019-03-15T23:02:43.927Z,12.10
2019-03-15T23:05:10.328Z,12.10
2019-03-15T23:07:36.864Z,12.10
2019-03-15T23:10:05.908Z,12.00
2019-03-15T23:12:32.106Z,12.00
2019-03-15T23:14:58.507Z,12.00
2019-03-15T23:17:24.667Z,12.00
2019-03-15T23:19:50.918Z,11.90
2019-03-15T23:22:17.103Z,11.90
2019-03-15T23:24:43.257Z,11.90
2019-03-15T23:27:09.786Z,11.90
2019-03-15T23:29:35.988Z,11.90
2019-03-15T23:32:02.173Z,11.80
2019-03-15T23:34:28.330Z,11.80
2019-03-15T23:36:54.498Z,11.70
2019-03-15T23:39:20.656Z,11.70
2019-03-15T23:41:46.866Z,11.70
2019-03-15T23:44:13.376Z,11.70
2019-03-15T23:46:39.589Z,11.60
2019-03-15T23:49:06.059Z,11.60
2019-03-15T23:51:32.574Z,11.60
2019-03-15T23:53:58.720Z,11.60
2019-03-15T23:56:24.931Z,11.60
2019-03-15T23:58:51.140Z,11.60
